sensor_id;sensor_type;location;lat;lon;timestamp;pressure;altitude;pressure_sealevel;temperature;humidity
33506;BME280;19843;51.040;13.782;2022-12-07T00:02:19;100141.69;;;3.93;94.68
33506;BME280;19843;51.040;13.782;2022-12-07T00:04:48;100125.78;;;3.93;94.43
33506;BME280;19843;51.040;13.782;2022-12-07T00:07:15;100128.69;;;3.87;94.34
33506;BME280;19843;51.040;13.782;2022-12-07T00:09:43;100124.50;;;4.02;95.22
33506;BME280;19843;51.040;13.782;2022-12-07T00:12:10;100127.63;;;3.91;94.15
33506;BME280;19843;51.040;13.782;2022-12-07T00:14:38;100118.34;;;3.81;93.88
33506;BME280;19843;51.040;13.782;2022-12-07T00:17:05;100125.78;;;3.73;94.69
33506;BME280;19843;51.040;13.782;2022-12-07T00:19:34;100125.88;;;3.90;93.50
33506;BME280;19843;51.040;13.782;2022-12-07T00:22:02;100118.88;;;3.89;93.67
33506;BME280;19843;51.040;13.782;2022-12-07T00:24:29;100114.22;;;3.74;93.06
33506;BME280;19843;51.040;13.782;2022-12-07T00:26:57;100108.53;;;3.83;92.46
33506;BME280;19843;51.040;13.782;2022-12-07T00:29:24;100117.03;;;3.91;92.80
33506;BME280;19843;51.040;13.782;2022-12-07T00:31:52;100106.16;;;3.77;93.16
33506;BME280;19843;51.040;13.782;2022-12-07T00:34:20;100108.47;;;3.85;92.89
33506;BME280;19843;51.040;13.782;2022-12-07T00:36:49;100110.91;;;3.89;92.19
33506;BME280;19843;51.040;13.782;2022-12-07T00:39:17;100109.91;;;3.92;91.84
33506;BME280;19843;51.040;13.782;2022-12-07T00:41:45;100101.97;;;3.71;93.15
33506;BME280;19843;51.040;13.782;2022-12-07T00:44:12;100103.63;;;3.74;93.05
33506;BME280;19843;51.040;13.782;2022-12-07T00:46:40;100108.03;;;3.75;92.88
33506;BME280;19843;51.040;13.782;2022-12-07T00:49:07;100100.66;;;3.82;92.17
33506;BME280;19843;51.040;13.782;2022-12-07T00:51:35;100102.31;;;3.84;92.94
33506;BME280;19843;51.040;13.782;2022-12-07T00:54:04;100102.00;;;3.90;91.80
33506;BME280;19843;51.040;13.782;2022-12-07T00:56:31;100097.91;;;3.83;92.05
33506;BME280;19843;51.040;13.782;2022-12-07T00:59:03;100101.91;;;3.93;91.12
33506;BME280;19843;51.040;13.782;2022-12-07T01:01:33;100098.72;;;3.85;91.72
33506;BME280;19843;51.040;13.782;2022-12-07T01:04:01;100096.22;;;3.82;91.78
33506;BME280;19843;51.040;13.782;2022-12-07T01:06:30;100091.94;;;3.98;92.00
33506;BME280;19843;51.040;13.782;2022-12-07T01:08:58;100090.59;;;3.88;91.63
33506;BME280;19843;51.040;13.782;2022-12-07T01:11:29;100098.94;;;4.00;91.77
33506;BME280;19843;51.040;13.782;2022-12-07T01:13:58;100097.88;;;4.04;91.41
33506;BME280;19843;51.040;13.782;2022-12-07T01:16:33;100101.03;;;3.93;91.77
33506;BME280;19843;51.040;13.782;2022-12-07T01:19:01;100099.50;;;3.87;92.05
33506;BME280;19843;51.040;13.782;2022-12-07T01:21:32;100105.75;;;3.86;92.13
33506;BME280;19843;51.040;13.782;2022-12-07T01:24:02;100091.28;;;3.93;91.31
33506;BME280;19843;51.040;13.782;2022-12-07T01:26:31;100088.09;;;3.85;92.15
33506;BME280;19843;51.040;13.782;2022-12-07T01:28:58;100084.97;;;3.96;91.30
33506;BME280;19843;51.040;13.782;2022-12-07T01:31:27;100090.88;;;4.03;91.00
33506;BME280;19843;51.040;13.782;2022-12-07T01:33:55;100087.47;;;3.99;92.30
33506;BME280;19843;51.040;13.782;2022-12-07T01:36:24;100089.28;;;3.98;91.09
33506;BME280;19843;51.040;13.782;2022-12-07T01:38:54;100087.56;;;3.97;90.88
33506;BME280;19843;51.040;13.782;2022-12-07T01:41:24;100084.41;;;4.08;90.97
33506;BME280;19843;51.040;13.782;2022-12-07T01:44:14;100086.16;;;4.09;91.49
33506;BME280;19843;51.040;13.782;2022-12-07T01:46:43;100083.25;;;3.95;91.85
33506;BME280;19843;51.040;13.782;2022-12-07T01:49:21;100085.78;;;4.17;91.51
33506;BME280;19843;51.040;13.782;2022-12-07T01:51:52;100084.78;;;4.19;90.71
33506;BME280;19843;51.040;13.782;2022-12-07T01:54:22;100086.38;;;4.05;90.92
33506;BME280;19843;51.040;13.782;2022-12-07T01:56:52;100089.44;;;4.14;91.35
33506;BME280;19843;51.040;13.782;2022-12-07T01:59:24;100088.31;;;3.81;91.47
33506;BME280;19843;51.040;13.782;2022-12-07T02:01:54;100085.50;;;3.84;92.34
33506;BME280;19843;51.040;13.782;2022-12-07T02:04:23;100088.97;;;3.86;92.20
33506;BME280;19843;51.040;13.782;2022-12-07T02:06:50;100092.09;;;3.75;91.79
33506;BME280;19843;51.040;13.782;2022-12-07T02:09:18;100088.25;;;3.82;92.07
33506;BME280;19843;51.040;13.782;2022-12-07T02:11:46;100084.94;;;3.77;92.74
33506;BME280;19843;51.040;13.782;2022-12-07T02:14:14;100090.38;;;3.74;92.98
33506;BME280;19843;51.040;13.782;2022-12-07T02:16:49;100085.31;;;3.68;92.62
33506;BME280;19843;51.040;13.782;2022-12-07T02:22:54;100080.03;;;3.47;94.22
33506;BME280;19843;51.040;13.782;2022-12-07T02:25:38;100084.16;;;3.54;93.38
33506;BME280;19843;51.040;13.782;2022-12-07T02:28:12;100080.97;;;3.46;94.00
33506;BME280;19843;51.040;13.782;2022-12-07T02:30:47;100077.13;;;3.53;93.11
33506;BME280;19843;51.040;13.782;2022-12-07T02:33:18;100077.16;;;3.52;92.73
33506;BME280;19843;51.040;13.782;2022-12-07T02:35:54;100080.72;;;3.52;93.23
33506;BME280;19843;51.040;13.782;2022-12-07T02:38:26;100078.09;;;3.30;93.69
33506;BME280;19843;51.040;13.782;2022-12-07T02:41:01;100074.84;;;3.24;94.35
33506;BME280;19843;51.040;13.782;2022-12-07T02:43:34;100079.47;;;3.19;94.16
33506;BME280;19843;51.040;13.782;2022-12-07T02:46:08;100067.16;;;3.18;93.60
33506;BME280;19843;51.040;13.782;2022-12-07T02:48:38;100068.28;;;3.12;94.76
33506;BME280;19843;51.040;13.782;2022-12-07T02:51:07;100057.84;;;3.29;94.33
33506;BME280;19843;51.040;13.782;2022-12-07T02:53:36;100053.78;;;3.21;94.26
33506;BME280;19843;51.040;13.782;2022-12-07T02:56:09;100059.19;;;3.18;94.93
33506;BME280;19843;51.040;13.782;2022-12-07T02:58:50;100058.41;;;3.36;94.12
33506;BME280;19843;51.040;13.782;2022-12-07T03:01:28;100048.56;;;3.40;93.25
33506;BME280;19843;51.040;13.782;2022-12-07T03:04:04;100044.50;;;3.10;93.93
33506;BME280;19843;51.040;13.782;2022-12-07T03:06:42;100044.44;;;3.32;93.40
33506;BME280;19843;51.040;13.782;2022-12-07T03:09:14;100046.66;;;3.43;93.44
33506;BME280;19843;51.040;13.782;2022-12-07T03:11:48;100045.03;;;3.19;94.02
33506;BME280;19843;51.040;13.782;2022-12-07T03:14:21;100038.81;;;3.40;93.54
33506;BME280;19843;51.040;13.782;2022-12-07T03:16:55;100044.41;;;3.34;93.23
33506;BME280;19843;51.040;13.782;2022-12-07T03:19:26;100046.09;;;3.35;93.03
33506;BME280;19843;51.040;13.782;2022-12-07T03:21:57;100034.84;;;3.30;93.98
33506;BME280;19843;51.040;13.782;2022-12-07T03:24:27;100032.13;;;3.31;93.15
33506;BME280;19843;51.040;13.782;2022-12-07T03:27:02;100031.25;;;3.10;93.83
33506;BME280;19843;51.040;13.782;2022-12-07T03:29:34;100030.34;;;3.11;94.24
33506;BME280;19843;51.040;13.782;2022-12-07T03:32:08;100019.94;;;3.07;93.93
33506;BME280;19843;51.040;13.782;2022-12-07T03:34:40;100023.72;;;3.22;93.10
33506;BME280;19843;51.040;13.782;2022-12-07T03:37:15;100024.94;;;2.92;94.22
33506;BME280;19843;51.040;13.782;2022-12-07T03:39:52;100033.47;;;2.99;93.93
33506;BME280;19843;51.040;13.782;2022-12-07T03:42:22;100026.59;;;2.95;94.57
33506;BME280;19843;51.040;13.782;2022-12-07T03:44:49;100028.53;;;3.12;93.57
33506;BME280;19843;51.040;13.782;2022-12-07T03:47:24;100018.34;;;3.03;93.56
33506;BME280;19843;51.040;13.782;2022-12-07T03:49:56;100023.09;;;3.15;93.48
33506;BME280;19843;51.040;13.782;2022-12-07T03:52:31;100023.84;;;3.19;93.00
33506;BME280;19843;51.040;13.782;2022-12-07T03:55:05;100016.09;;;3.14;93.14
33506;BME280;19843;51.040;13.782;2022-12-07T03:57:37;100023.69;;;3.01;92.68
33506;BME280;19843;51.040;13.782;2022-12-07T04:00:08;100021.78;;;3.05;92.81
33506;BME280;19843;51.040;13.782;2022-12-07T04:02:37;100020.00;;;3.05;92.52
33506;BME280;19843;51.040;13.782;2022-12-07T04:05:06;100015.34;;;3.10;92.56
33506;BME280;19843;51.040;13.782;2022-12-07T04:07:34;100010.06;;;3.10;92.18
33506;BME280;19843;51.040;13.782;2022-12-07T04:10:03;100014.31;;;3.14;91.82
33506;BME280;19843;51.040;13.782;2022-12-07T04:12:31;100007.50;;;3.09;91.68
33506;BME280;19843;51.040;13.782;2022-12-07T04:14:58;100008.19;;;3.12;92.06
33506;BME280;19843;51.040;13.782;2022-12-07T04:17:26;100006.16;;;3.19;91.69
33506;BME280;19843;51.040;13.782;2022-12-07T04:19:54;100003.84;;;3.11;91.39
33506;BME280;19843;51.040;13.782;2022-12-07T04:22:22;99997.34;;;3.19;91.36
33506;BME280;19843;51.040;13.782;2022-12-07T04:24:50;99992.66;;;3.25;90.17
33506;BME280;19843;51.040;13.782;2022-12-07T04:27:17;99996.75;;;3.12;89.47
33506;BME280;19843;51.040;13.782;2022-12-07T04:29:45;99994.69;;;3.19;89.22
33506;BME280;19843;51.040;13.782;2022-12-07T04:32:12;99994.16;;;3.10;89.51
33506;BME280;19843;51.040;13.782;2022-12-07T04:34:40;99990.09;;;3.02;89.66
33506;BME280;19843;51.040;13.782;2022-12-07T04:37:09;99986.16;;;2.91;90.59
33506;BME280;19843;51.040;13.782;2022-12-07T04:39:36;99982.13;;;2.81;91.22
33506;BME280;19843;51.040;13.782;2022-12-07T04:42:04;99981.44;;;2.78;91.39
33506;BME280;19843;51.040;13.782;2022-12-07T04:44:31;99970.09;;;2.74;91.70
33506;BME280;19843;51.040;13.782;2022-12-07T04:46:59;99965.66;;;2.75;91.65
33506;BME280;19843;51.040;13.782;2022-12-07T04:49:27;99963.38;;;2.65;91.54
33506;BME280;19843;51.040;13.782;2022-12-07T04:51:54;99959.81;;;2.88;90.34
33506;BME280;19843;51.040;13.782;2022-12-07T04:54:23;99946.03;;;2.58;90.58
33506;BME280;19843;51.040;13.782;2022-12-07T04:56:51;99957.44;;;2.60;91.06
33506;BME280;19843;51.040;13.782;2022-12-07T04:59:18;99955.16;;;2.51;91.04
33506;BME280;19843;51.040;13.782;2022-12-07T05:01:46;99949.44;;;2.40;91.90
33506;BME280;19843;51.040;13.782;2022-12-07T05:04:13;99950.00;;;2.48;91.63
33506;BME280;19843;51.040;13.782;2022-12-07T05:06:42;99947.94;;;2.34;91.84
33506;BME280;19843;51.040;13.782;2022-12-07T05:09:09;99948.84;;;2.33;92.40
33506;BME280;19843;51.040;13.782;2022-12-07T05:11:38;99942.06;;;2.26;92.45
33506;BME280;19843;51.040;13.782;2022-12-07T05:14:10;99935.59;;;2.11;93.08
33506;BME280;19843;51.040;13.782;2022-12-07T05:16:38;99934.56;;;2.15;93.35
33506;BME280;19843;51.040;13.782;2022-12-07T05:19:06;99939.44;;;2.26;93.10
33506;BME280;19843;51.040;13.782;2022-12-07T05:21:34;99940.84;;;2.35;92.44
33506;BME280;19843;51.040;13.782;2022-12-07T05:24:02;99934.38;;;2.42;91.82
33506;BME280;19843;51.040;13.782;2022-12-07T05:26:30;99936.72;;;2.27;91.64
33506;BME280;19843;51.040;13.782;2022-12-07T05:28:59;99937.44;;;2.31;92.21
33506;BME280;19843;51.040;13.782;2022-12-07T05:31:27;99934.06;;;2.05;93.60
33506;BME280;19843;51.040;13.782;2022-12-07T05:33:55;99938.13;;;2.14;93.38
33506;BME280;19843;51.040;13.782;2022-12-07T05:36:22;99931.72;;;2.42;92.67
33506;BME280;19843;51.040;13.782;2022-12-07T05:38:50;99932.53;;;2.44;92.90
33506;BME280;19843;51.040;13.782;2022-12-07T05:41:18;99931.09;;;2.57;92.36
33506;BME280;19843;51.040;13.782;2022-12-07T05:44:05;99927.03;;;2.70;92.28
33506;BME280;19843;51.040;13.782;2022-12-07T05:46:33;99924.75;;;2.61;92.40
33506;BME280;19843;51.040;13.782;2022-12-07T05:49:00;99919.19;;;2.67;92.24
33506;BME280;19843;51.040;13.782;2022-12-07T05:51:28;99913.78;;;2.70;91.99
33506;BME280;19843;51.040;13.782;2022-12-07T05:53:55;99911.13;;;2.70;91.88
33506;BME280;19843;51.040;13.782;2022-12-07T05:56:23;99907.28;;;2.78;91.04
33506;BME280;19843;51.040;13.782;2022-12-07T05:58:50;99908.34;;;2.94;90.38
33506;BME280;19843;51.040;13.782;2022-12-07T06:01:53;99905.44;;;2.80;91.19
33506;BME280;19843;51.040;13.782;2022-12-07T06:04:22;99907.53;;;2.92;91.01
33506;BME280;19843;51.040;13.782;2022-12-07T06:06:50;99902.09;;;2.95;89.68
33506;BME280;19843;51.040;13.782;2022-12-07T06:09:19;99899.06;;;3.04;89.76
33506;BME280;19843;51.040;13.782;2022-12-07T06:11:47;99899.38;;;3.17;89.00
33506;BME280;19843;51.040;13.782;2022-12-07T06:14:32;99898.09;;;3.07;88.72
33506;BME280;19843;51.040;13.782;2022-12-07T06:17:01;99895.66;;;3.02;88.23
33506;BME280;19843;51.040;13.782;2022-12-07T06:19:29;99897.59;;;3.18;87.59
33506;BME280;19843;51.040;13.782;2022-12-07T06:21:57;99892.53;;;3.32;86.52
33506;BME280;19843;51.040;13.782;2022-12-07T06:24:24;99884.50;;;3.33;86.66
33506;BME280;19843;51.040;13.782;2022-12-07T06:26:52;99890.00;;;3.29;85.65
33506;BME280;19843;51.040;13.782;2022-12-07T06:29:20;99883.94;;;3.27;85.86
33506;BME280;19843;51.040;13.782;2022-12-07T06:31:48;99878.84;;;3.22;85.84
33506;BME280;19843;51.040;13.782;2022-12-07T06:34:18;99886.09;;;3.38;85.29
33506;BME280;19843;51.040;13.782;2022-12-07T06:36:46;99884.66;;;3.49;85.20
33506;BME280;19843;51.040;13.782;2022-12-07T06:39:17;99893.78;;;3.44;85.13
33506;BME280;19843;51.040;13.782;2022-12-07T06:41:45;99891.44;;;3.57;84.90
33506;BME280;19843;51.040;13.782;2022-12-07T06:44:12;99892.06;;;3.62;84.71
33506;BME280;19843;51.040;13.782;2022-12-07T06:46:40;99894.28;;;3.71;84.58
33506;BME280;19843;51.040;13.782;2022-12-07T06:49:07;99894.66;;;3.82;84.60
33506;BME280;19843;51.040;13.782;2022-12-07T06:51:36;99892.91;;;3.81;84.69
33506;BME280;19843;51.040;13.782;2022-12-07T06:54:07;99896.97;;;3.88;85.27
33506;BME280;19843;51.040;13.782;2022-12-07T06:56:35;99886.81;;;3.79;85.90
33506;BME280;19843;51.040;13.782;2022-12-07T06:59:03;99891.69;;;3.88;85.35
33506;BME280;19843;51.040;13.782;2022-12-07T07:01:32;99886.38;;;3.88;85.82
33506;BME280;19843;51.040;13.782;2022-12-07T07:04:00;99889.19;;;3.66;86.85
33506;BME280;19843;51.040;13.782;2022-12-07T07:06:28;99877.09;;;3.80;87.09
33506;BME280;19843;51.040;13.782;2022-12-07T07:08:57;99889.84;;;3.71;88.17
33506;BME280;19843;51.040;13.782;2022-12-07T07:11:24;99885.59;;;3.67;88.67
33506;BME280;19843;51.040;13.782;2022-12-07T07:13:52;99886.97;;;3.76;90.00
33506;BME280;19843;51.040;13.782;2022-12-07T07:16:20;99884.75;;;3.67;90.62
33506;BME280;19843;51.040;13.782;2022-12-07T07:18:47;99887.63;;;3.62;92.29
33506;BME280;19843;51.040;13.782;2022-12-07T07:21:15;99886.97;;;3.57;92.82
33506;BME280;19843;51.040;13.782;2022-12-07T07:23:42;99887.25;;;3.70;92.56
33506;BME280;19843;51.040;13.782;2022-12-07T07:26:11;99900.03;;;3.62;93.78
33506;BME280;19843;51.040;13.782;2022-12-07T07:28:45;99896.09;;;3.31;94.65
33506;BME280;19843;51.040;13.782;2022-12-07T07:31:12;99894.81;;;3.21;96.36
33506;BME280;19843;51.040;13.782;2022-12-07T07:33:40;99901.50;;;3.29;96.88
33506;BME280;19843;51.040;13.782;2022-12-07T07:36:08;99903.78;;;3.37;96.51
33506;BME280;19843;51.040;13.782;2022-12-07T07:38:35;99901.09;;;3.39;97.41
33506;BME280;19843;51.040;13.782;2022-12-07T07:41:03;99907.91;;;3.24;97.74
33506;BME280;19843;51.040;13.782;2022-12-07T07:43:32;99906.84;;;3.28;98.49
33506;BME280;19843;51.040;13.782;2022-12-07T07:46:00;99904.22;;;3.47;97.78
33506;BME280;19843;51.040;13.782;2022-12-07T07:48:27;99902.00;;;3.38;97.68
33506;BME280;19843;51.040;13.782;2022-12-07T07:50:55;99900.13;;;3.40;98.21
33506;BME280;19843;51.040;13.782;2022-12-07T07:53:22;99902.09;;;3.55;97.15
33506;BME280;19843;51.040;13.782;2022-12-07T07:55:51;99908.78;;;3.64;97.20
33506;BME280;19843;51.040;13.782;2022-12-07T07:58:19;99913.13;;;3.65;97.35
33506;BME280;19843;51.040;13.782;2022-12-07T08:00:48;99896.09;;;3.70;96.08
33506;BME280;19843;51.040;13.782;2022-12-07T08:03:16;99910.84;;;3.76;96.16
33506;BME280;19843;51.040;13.782;2022-12-07T08:05:43;99907.13;;;3.80;96.34
33506;BME280;19843;51.040;13.782;2022-12-07T08:08:11;99903.94;;;3.72;96.06
33506;BME280;19843;51.040;13.782;2022-12-07T08:10:39;99910.19;;;3.90;95.92
33506;BME280;19843;51.040;13.782;2022-12-07T08:13:06;99905.28;;;4.00;95.70
33506;BME280;19843;51.040;13.782;2022-12-07T08:15:42;99901.84;;;4.16;95.87
33506;BME280;19843;51.040;13.782;2022-12-07T08:18:11;99913.59;;;4.11;94.88
33506;BME280;19843;51.040;13.782;2022-12-07T08:20:42;99901.28;;;4.10;95.03
33506;BME280;19843;51.040;13.782;2022-12-07T08:23:11;99904.78;;;4.10;94.07
33506;BME280;19843;51.040;13.782;2022-12-07T08:25:40;99892.66;;;4.24;94.11
33506;BME280;19843;51.040;13.782;2022-12-07T08:28:07;99899.19;;;4.16;94.49
33506;BME280;19843;51.040;13.782;2022-12-07T08:30:35;99901.78;;;4.18;94.16
33506;BME280;19843;51.040;13.782;2022-12-07T08:33:03;99906.97;;;4.38;93.00
33506;BME280;19843;51.040;13.782;2022-12-07T08:35:33;99900.75;;;4.21;92.83
33506;BME280;19843;51.040;13.782;2022-12-07T08:38:01;99897.34;;;4.36;92.71
33506;BME280;19843;51.040;13.782;2022-12-07T08:40:29;99900.38;;;4.28;92.31
33506;BME280;19843;51.040;13.782;2022-12-07T08:42:57;99906.91;;;4.21;92.01
33506;BME280;19843;51.040;13.782;2022-12-07T08:45:25;99911.56;;;4.35;92.14
33506;BME280;19843;51.040;13.782;2022-12-07T08:47:56;99903.63;;;4.52;91.92
33506;BME280;19843;51.040;13.782;2022-12-07T08:50:26;99898.34;;;4.33;91.14
33506;BME280;19843;51.040;13.782;2022-12-07T08:52:57;99905.41;;;4.52;91.63
33506;BME280;19843;51.040;13.782;2022-12-07T08:55:25;99899.31;;;4.67;90.87
33506;BME280;19843;51.040;13.782;2022-12-07T08:57:54;99908.38;;;4.80;90.77
33506;BME280;19843;51.040;13.782;2022-12-07T09:00:22;99901.25;;;4.81;89.70
33506;BME280;19843;51.040;13.782;2022-12-07T09:02:49;99901.06;;;4.68;89.60
33506;BME280;19843;51.040;13.782;2022-12-07T09:05:17;99909.34;;;4.79;89.09
33506;BME280;19843;51.040;13.782;2022-12-07T09:07:47;99903.06;;;4.80;88.07
33506;BME280;19843;51.040;13.782;2022-12-07T09:10:17;99910.25;;;4.96;88.49
33506;BME280;19843;51.040;13.782;2022-12-07T09:12:45;99901.50;;;5.11;87.75
33506;BME280;19843;51.040;13.782;2022-12-07T09:15:12;99902.19;;;5.15;87.54
33506;BME280;19843;51.040;13.782;2022-12-07T09:17:40;99893.97;;;5.19;87.55
33506;BME280;19843;51.040;13.782;2022-12-07T09:20:08;99902.03;;;5.18;87.14
33506;BME280;19843;51.040;13.782;2022-12-07T09:22:35;99911.91;;;4.98;86.91
33506;BME280;19843;51.040;13.782;2022-12-07T09:25:04;99895.69;;;5.20;86.42
33506;BME280;19843;51.040;13.782;2022-12-07T09:27:33;99903.25;;;5.28;86.48
33506;BME280;19843;51.040;13.782;2022-12-07T09:30:00;99907.53;;;5.31;85.51
33506;BME280;19843;51.040;13.782;2022-12-07T09:32:28;99897.06;;;5.61;84.49
33506;BME280;19843;51.040;13.782;2022-12-07T09:34:56;99903.94;;;5.81;83.82
33506;BME280;19843;51.040;13.782;2022-12-07T09:37:24;99908.13;;;5.69;83.07
33506;BME280;19843;51.040;13.782;2022-12-07T09:39:51;99906.19;;;5.73;83.58
33506;BME280;19843;51.040;13.782;2022-12-07T09:42:27;99906.97;;;5.75;83.51
33506;BME280;19843;51.040;13.782;2022-12-07T09:44:58;99905.91;;;5.61;83.15
33506;BME280;19843;51.040;13.782;2022-12-07T09:47:26;99899.03;;;5.57;83.36
33506;BME280;19843;51.040;13.782;2022-12-07T09:50:00;99899.56;;;5.64;82.93
33506;BME280;19843;51.040;13.782;2022-12-07T09:52:30;99906.78;;;5.78;82.11
33506;BME280;19843;51.040;13.782;2022-12-07T09:55:10;99890.66;;;5.97;82.03
33506;BME280;19843;51.040;13.782;2022-12-07T09:57:39;99898.81;;;5.94;81.80
33506;BME280;19843;51.040;13.782;2022-12-07T10:00:13;99895.31;;;6.09;80.01
33506;BME280;19843;51.040;13.782;2022-12-07T10:02:43;99896.50;;;6.03;79.20
33506;BME280;19843;51.040;13.782;2022-12-07T10:05:13;99882.91;;;6.24;77.87
33506;BME280;19843;51.040;13.782;2022-12-07T10:07:49;99880.53;;;6.19;78.78
33506;BME280;19843;51.040;13.782;2022-12-07T10:10:20;99883.38;;;6.00;79.00
33506;BME280;19843;51.040;13.782;2022-12-07T10:12:59;99873.00;;;6.12;79.01
33506;BME280;19843;51.040;13.782;2022-12-07T10:15:46;99874.94;;;6.24;79.00
33506;BME280;19843;51.040;13.782;2022-12-07T10:18:24;99873.31;;;6.52;78.10
33506;BME280;19843;51.040;13.782;2022-12-07T10:21:02;99875.88;;;6.83;76.43
33506;BME280;19843;51.040;13.782;2022-12-07T10:23:30;99874.72;;;7.18;75.79
33506;BME280;19843;51.040;13.782;2022-12-07T10:25:57;99877.19;;;7.35;74.91
33506;BME280;19843;51.040;13.782;2022-12-07T10:28:33;99869.00;;;6.95;75.37
33506;BME280;19843;51.040;13.782;2022-12-07T10:31:16;99882.09;;;6.84;75.79
33506;BME280;19843;51.040;13.782;2022-12-07T10:33:50;99875.19;;;7.10;76.10
33506;BME280;19843;51.040;13.782;2022-12-07T10:36:21;99870.44;;;6.71;75.29
33506;BME280;19843;51.040;13.782;2022-12-07T10:38:52;99871.53;;;6.52;77.51
33506;BME280;19843;51.040;13.782;2022-12-07T10:41:20;99866.16;;;6.68;77.70
33506;BME280;19843;51.040;13.782;2022-12-07T10:43:52;99868.63;;;6.71;77.30
33506;BME280;19843;51.040;13.782;2022-12-07T10:46:55;99866.53;;;6.32;78.25
33506;BME280;19843;51.040;13.782;2022-12-07T10:50:08;99867.81;;;6.09;79.20
33506;BME280;19843;51.040;13.782;2022-12-07T10:52:51;99867.31;;;6.18;78.98
33506;BME280;19843;51.040;13.782;2022-12-07T10:55:27;99866.94;;;6.24;79.15
33506;BME280;19843;51.040;13.782;2022-12-07T10:58:04;99862.00;;;6.02;80.36
33506;BME280;19843;51.040;13.782;2022-12-07T11:00:43;99865.53;;;6.02;80.11
33506;BME280;19843;51.040;13.782;2022-12-07T11:03:36;99854.59;;;5.91;81.20
33506;BME280;19843;51.040;13.782;2022-12-07T11:06:20;99861.84;;;6.05;80.90
33506;BME280;19843;51.040;13.782;2022-12-07T11:09:03;99852.22;;;6.02;80.72
33506;BME280;19843;51.040;13.782;2022-12-07T11:11:42;99853.78;;;6.06;81.63
33506;BME280;19843;51.040;13.782;2022-12-07T11:14:20;99850.31;;;6.20;80.95
33506;BME280;19843;51.040;13.782;2022-12-07T11:16:56;99844.84;;;6.38;81.52
33506;BME280;19843;51.040;13.782;2022-12-07T11:19:49;99838.13;;;6.46;80.06
33506;BME280;19843;51.040;13.782;2022-12-07T11:22:28;99844.69;;;6.41;80.30
33506;BME280;19843;51.040;13.782;2022-12-07T11:25:03;99840.63;;;6.50;80.56
33506;BME280;19843;51.040;13.782;2022-12-07T11:27:46;99839.09;;;6.45;80.14
33506;BME280;19843;51.040;13.782;2022-12-07T11:30:18;99837.00;;;6.20;79.88
33506;BME280;19843;51.040;13.782;2022-12-07T11:33:04;99837.28;;;6.16;79.98
33506;BME280;19843;51.040;13.782;2022-12-07T11:35:47;99834.22;;;6.22;80.32
33506;BME280;19843;51.040;13.782;2022-12-07T11:38:22;99840.53;;;6.05;81.35
33506;BME280;19843;51.040;13.782;2022-12-07T11:41:00;99843.38;;;6.02;83.43
33506;BME280;19843;51.040;13.782;2022-12-07T11:43:52;99843.34;;;5.38;87.59
33506;BME280;19843;51.040;13.782;2022-12-07T11:46:24;99836.34;;;5.20;89.53
33506;BME280;19843;51.040;13.782;2022-12-07T11:48:58;99842.72;;;5.49;89.43
33506;BME280;19843;51.040;13.782;2022-12-07T11:51:33;99852.47;;;5.17;91.68
33506;BME280;19843;51.040;13.782;2022-12-07T11:54:05;99844.78;;;5.28;92.82
33506;BME280;19843;51.040;13.782;2022-12-07T11:56:39;99841.69;;;5.36;92.33
33506;BME280;19843;51.040;13.782;2022-12-07T11:59:12;99840.59;;;5.40;93.89
33506;BME280;19843;51.040;13.782;2022-12-07T12:01:50;99839.44;;;5.28;93.11
33506;BME280;19843;51.040;13.782;2022-12-07T12:04:31;99834.31;;;5.25;92.71
33506;BME280;19843;51.040;13.782;2022-12-07T12:07:02;99828.47;;;5.18;92.39
33506;BME280;19843;51.040;13.782;2022-12-07T12:09:55;99827.97;;;5.28;92.36
33506;BME280;19843;51.040;13.782;2022-12-07T12:12:47;99825.94;;;5.49;92.06
33506;BME280;19843;51.040;13.782;2022-12-07T12:15:48;99817.69;;;5.69;91.46
33506;BME280;19843;51.040;13.782;2022-12-07T12:18:32;99822.50;;;5.94;90.93
33506;BME280;19843;51.040;13.782;2022-12-07T12:21:08;99812.81;;;5.93;89.30
33506;BME280;19843;51.040;13.782;2022-12-07T12:23:41;99820.38;;;6.01;87.81
33506;BME280;19843;51.040;13.782;2022-12-07T12:26:16;99814.00;;;6.03;88.66
33506;BME280;19843;51.040;13.782;2022-12-07T12:28:52;99816.00;;;6.00;88.97
33506;BME280;19843;51.040;13.782;2022-12-07T12:31:38;99823.44;;;5.93;87.33
33506;BME280;19843;51.040;13.782;2022-12-07T12:34:29;99814.69;;;5.91;86.37
33506;BME280;19843;51.040;13.782;2022-12-07T12:36:57;99825.09;;;5.96;85.93
33506;BME280;19843;51.040;13.782;2022-12-07T12:39:26;99819.94;;;5.77;88.10
33506;BME280;19843;51.040;13.782;2022-12-07T12:41:58;99827.81;;;5.62;88.04
33506;BME280;19843;51.040;13.782;2022-12-07T12:44:40;99831.94;;;5.36;88.38
33506;BME280;19843;51.040;13.782;2022-12-07T12:47:42;99823.50;;;5.28;89.35
33506;BME280;19843;51.040;13.782;2022-12-07T12:50:21;99827.81;;;4.97;89.98
33506;BME280;19843;51.040;13.782;2022-12-07T12:52:55;99825.56;;;4.90;89.26
33506;BME280;19843;51.040;13.782;2022-12-07T12:55:47;99819.31;;;4.91;90.14
33506;BME280;19843;51.040;13.782;2022-12-07T12:58:40;99817.44;;;4.93;88.97
33506;BME280;19843;51.040;13.782;2022-12-07T13:04:23;99830.25;;;4.85;90.44
33506;BME280;19843;51.040;13.782;2022-12-07T13:06:51;99830.13;;;4.53;92.55
33506;BME280;19843;51.040;13.782;2022-12-07T13:09:21;99822.88;;;4.39;94.48
33506;BME280;19843;51.040;13.782;2022-12-07T13:11:57;99820.75;;;4.28;94.94
33506;BME280;19843;51.040;13.782;2022-12-07T13:14:54;99820.16;;;4.41;95.68
33506;BME280;19843;51.040;13.782;2022-12-07T13:20:45;99829.09;;;4.38;95.43
33506;BME280;19843;51.040;13.782;2022-12-07T13:23:16;99820.38;;;4.53;94.95
33506;BME280;19843;51.040;13.782;2022-12-07T13:25:49;99821.31;;;4.35;96.05
33506;BME280;19843;51.040;13.782;2022-12-07T13:28:21;99825.28;;;4.26;96.34
33506;BME280;19843;51.040;13.782;2022-12-07T13:31:04;99832.66;;;4.38;96.44
33506;BME280;19843;51.040;13.782;2022-12-07T13:33:36;99833.25;;;4.26;95.77